Belden, Nebraska
Current Conditions -  °F | °C
As of 7:35 AM on Monday 24 Nov 2014 (Local Time) from KLCG Reporting Station
Overcast Overcast  
Wind Chill: 13°   Ceiling: 2000
Heat Index: 26°   Visibility: 10mi
Dew Point: 18°   Wind: 16mph
Humidity: 74%   Direction: 330°NNW
Pressure: 29.65"   Gusts: 26mph
Location:  42.41°N, 97.21°W
Report Text: KLCG 241335Z AUTO 33014G23KT 10SM OVC020 M04/M08 A2965 RMK AO2 T10361076
Loading
Personal Weather Stations






























Interactive Weather Map New forecast layout! Learn more

10-Day Weather Forecast

Advertisements
Track Severe Weather on mobile